createdAt,value
2023-03-26T00:02:08.230Z,99111.25
2023-03-26T00:04:36.999Z,99110.16
2023-03-26T00:07:05.843Z,99116.06
2023-03-26T00:09:35.814Z,99109.28
2023-03-26T00:12:05.155Z,99107.91
2023-03-26T00:14:33.640Z,99111.34
2023-03-26T00:17:02.612Z,99114.44
2023-03-26T00:19:32.306Z,99108.09
2023-03-26T00:22:03.663Z,99118.44
2023-03-26T00:24:32.364Z,99119.78
2023-03-26T00:27:02.760Z,99122.53
2023-03-26T00:29:33.326Z,99126.66
2023-03-26T00:32:02.287Z,99125.69
2023-03-26T00:34:30.994Z,99129.47
2023-03-26T00:37:02.803Z,99128.78
2023-03-26T00:39:35.751Z,99147.75
2023-03-26T00:42:08.477Z,99148.13
2023-03-26T00:44:38.208Z,99150.38
2023-03-26T00:47:07.866Z,99138.41
2023-03-26T00:49:36.566Z,99145.72
2023-03-26T00:52:08.762Z,99148.75
2023-03-26T00:54:38.161Z,99136.84
2023-03-26T00:57:10.533Z,99133.00
2023-03-26T00:59:39.288Z,99127.81
2023-03-26T01:02:10.677Z,99133.63
2023-03-26T01:04:39.593Z,99133.16
2023-03-26T01:07:14.199Z,99138.84
2023-03-26T01:09:50.513Z,99138.50
2023-03-26T01:12:24.060Z,99124.22
2023-03-26T01:14:56.718Z,99120.06
2023-03-26T01:17:25.966Z,99113.53
2023-03-26T01:20:05.680Z,99120.31
2023-03-26T01:22:37.800Z,99125.19
2023-03-26T01:25:09.672Z,99121.06
2023-03-26T01:27:43.722Z,99112.06
2023-03-26T01:30:20.925Z,99115.38
2023-03-26T01:33:00.845Z,99116.88
2023-03-26T01:35:45.914Z,99107.00
2023-03-26T01:38:27.912Z,99103.41
2023-03-26T01:41:06.324Z,99092.81
2023-03-26T01:43:47.079Z,99088.41
2023-03-26T01:46:17.246Z,99094.75
2023-03-26T01:48:48.033Z,99084.16
2023-03-26T01:51:28.792Z,99078.66
2023-03-26T01:53:58.589Z,99080.59
2023-03-26T01:56:37.150Z,99079.53
2023-03-26T01:59:18.832Z,99083.84
2023-03-26T02:01:57.455Z,99081.19
2023-03-26T02:04:30.919Z,99078.75
2023-03-26T02:07:05.773Z,99083.94
2023-03-26T02:09:42.086Z,99084.84
2023-03-26T02:12:12.717Z,99082.38
2023-03-26T02:14:42.547Z,99077.13
2023-03-26T02:17:11.225Z,99083.28
2023-03-26T02:19:42.363Z,99080.72
2023-03-26T02:22:15.834Z,99085.94
2023-03-26T02:24:46.822Z,99084.16
2023-03-26T02:27:18.547Z,99083.22
2023-03-26T02:29:50.306Z,99084.94
2023-03-26T02:32:22.417Z,99085.41
2023-03-26T02:34:51.733Z,99088.03
2023-03-26T02:37:21.089Z,99089.81
2023-03-26T02:39:55.850Z,99088.03
2023-03-26T02:42:32.900Z,99084.59
2023-03-26T02:45:01.913Z,99084.47
2023-03-26T02:47:51.133Z,99087.13
2023-03-26T02:50:46.129Z,99080.06
2023-03-26T02:53:44.353Z,99086.38
2023-03-26T02:56:36.107Z,99085.50
2023-03-26T02:59:18.484Z,99081.94
2023-03-26T03:01:52.315Z,99086.38
2023-03-26T03:04:22.510Z,99093.31
2023-03-26T03:06:53.123Z,99090.56
2023-03-26T03:09:22.610Z,99092.47
2023-03-26T03:12:09.842Z,99102.81
2023-03-26T03:14:40.863Z,99105.22
2023-03-26T03:17:09.878Z,99102.53
2023-03-26T03:19:38.742Z,99098.00
2023-03-26T03:22:07.666Z,99102.28
2023-03-26T03:24:38.769Z,99103.22
2023-03-26T03:27:08.141Z,99101.88
2023-03-26T03:29:42.526Z,99099.91
2023-03-26T03:32:43.726Z,99092.78
2023-03-26T03:35:13.166Z,99097.03
2023-03-26T03:37:45.120Z,99090.91
2023-03-26T03:40:14.361Z,99090.94
2023-03-26T03:42:43.778Z,99091.81
2023-03-26T03:45:15.440Z,99100.44
2023-03-26T03:48:02.797Z,99102.16
2023-03-26T03:50:39.660Z,99097.03
2023-03-26T03:53:30.494Z,99094.41
2023-03-26T03:56:02.283Z,99097.31
2023-03-26T03:59:00.231Z,99085.84
2023-03-26T04:01:36.157Z,99099.84
2023-03-26T04:04:10.318Z,99102.75
2023-03-26T04:07:00.346Z,99110.44
2023-03-26T04:09:36.593Z,99103.56
2023-03-26T04:12:14.127Z,99110.56
2023-03-26T04:15:03.430Z,99115.00
2023-03-26T04:17:42.932Z,99113.47
2023-03-26T04:20:15.832Z,99111.69
2023-03-26T04:22:47.300Z,99114.38
2023-03-26T04:25:18.578Z,99111.78
2023-03-26T04:27:51.162Z,99105.66
2023-03-26T04:30:42.438Z,99099.38
2023-03-26T04:33:40.224Z,99105.47
2023-03-26T04:36:11.687Z,99112.00
2023-03-26T04:38:43.711Z,99112.88
2023-03-26T04:41:15.210Z,99109.16
2023-03-26T04:43:53.541Z,99105.66
2023-03-26T04:46:53.032Z,99116.22
2023-03-26T04:49:30.450Z,99125.59
2023-03-26T04:51:59.316Z,99124.91
2023-03-26T04:55:09.128Z,99122.16
2023-03-26T04:57:46.157Z,99121.03
2023-03-26T05:00:29.295Z,99127.94
2023-03-26T05:03:01.604Z,99132.31
2023-03-26T05:05:32.132Z,99137.44
2023-03-26T05:08:02.245Z,99133.72
2023-03-26T05:10:31.098Z,99142.31
2023-03-26T05:13:10.458Z,99152.16
2023-03-26T05:15:41.833Z,99148.75
2023-03-26T05:18:40.005Z,99149.31
2023-03-26T05:21:11.232Z,99153.66
2023-03-26T05:23:41.958Z,99161.53
2023-03-26T05:26:20.071Z,99165.81
2023-03-26T05:28:49.929Z,99163.03
2023-03-26T05:31:28.178Z,99162.38
2023-03-26T05:34:00.514Z,99168.94
2023-03-26T05:36:30.964Z,99168.09
2023-03-26T05:39:12.889Z,99168.63
2023-03-26T05:42:07.872Z,99177.25
2023-03-26T05:44:55.431Z,99177.00
2023-03-26T05:47:28.809Z,99177.50
2023-03-26T05:49:59.260Z,99174.78
2023-03-26T05:52:30.287Z,99178.44
2023-03-26T05:55:33.440Z,99177.94
2023-03-26T05:58:20.879Z,99182.75
2023-03-26T06:01:17.130Z,99183.94
2023-03-26T06:04:05.993Z,99186.00
2023-03-26T06:06:40.663Z,99183.84
2023-03-26T06:09:12.138Z,99189.38
2023-03-26T06:11:41.980Z,99182.72
2023-03-26T06:14:10.913Z,99181.59
2023-03-26T06:16:44.565Z,99180.06
2023-03-26T06:19:23.333Z,99168.91
2023-03-26T06:21:58.350Z,99181.72
2023-03-26T06:24:34.924Z,99172.25
2023-03-26T06:27:26.775Z,99174.19
2023-03-26T06:30:30.405Z,99175.44
2023-03-26T06:33:08.818Z,99176.53
2023-03-26T06:35:45.573Z,99178.94
2023-03-26T06:38:16.780Z,99184.16
2023-03-26T06:40:47.236Z,99186.53
2023-03-26T06:43:39.518Z,99177.31
2023-03-26T06:46:34.415Z,99180.19
2023-03-26T06:49:43.135Z,99184.03
2023-03-26T06:52:20.497Z,99183.16
2023-03-26T06:55:01.741Z,99179.72
2023-03-26T06:57:51.772Z,99172.56
2023-03-26T07:00:22.081Z,99172.69
2023-03-26T07:03:09.939Z,99174.88
2023-03-26T07:05:57.445Z,99166.84
2023-03-26T07:08:44.804Z,99168.97
2023-03-26T07:11:36.995Z,99173.22
2023-03-26T07:14:27.975Z,99170.19
2023-03-26T07:17:12.902Z,99172.69
2023-03-26T07:19:52.722Z,99168.75
2023-03-26T07:22:26.570Z,99166.31
2023-03-26T07:25:21.881Z,99166.22
2023-03-26T07:28:04.262Z,99162.63
2023-03-26T07:30:57.594Z,99158.41
2023-03-26T07:33:49.836Z,99158.06
2023-03-26T07:36:50.005Z,99152.69
2023-03-26T07:39:42.704Z,99150.22
2023-03-26T07:42:38.763Z,99146.97
2023-03-26T07:45:33.941Z,99145.97
2023-03-26T07:48:25.601Z,99143.44
2023-03-26T07:51:21.687Z,99136.41
2023-03-26T07:54:17.258Z,99140.03
2023-03-26T07:57:08.288Z,99125.84
2023-03-26T07:59:43.961Z,99130.00
2023-03-26T08:02:43.280Z,99124.94
2023-03-26T08:05:36.602Z,99123.41
2023-03-26T08:08:32.636Z,99123.44
2023-03-26T08:11:39.589Z,99120.47
2023-03-26T08:14:26.278Z,99118.13
2023-03-26T08:17:02.382Z,99119.59
2023-03-26T08:19:51.851Z,99116.03
2023-03-26T08:22:28.094Z,99120.25
2023-03-26T08:25:17.909Z,99123.84
2023-03-26T08:27:56.455Z,99126.28
2023-03-26T08:30:28.108Z,99116.53
2023-03-26T08:32:59.731Z,99122.44
2023-03-26T08:35:29.902Z,99113.66
2023-03-26T08:38:00.326Z,99118.69
2023-03-26T08:40:58.305Z,99110.25
2023-03-26T08:43:56.366Z,99097.25
2023-03-26T08:46:51.987Z,99104.03
2023-03-26T08:49:57.784Z,99097.69
2023-03-26T08:53:12.109Z,99100.66
2023-03-26T08:55:53.833Z,99092.13
2023-03-26T08:59:25.725Z,99087.16
2023-03-26T09:02:18.423Z,99086.25
2023-03-26T09:05:27.397Z,99078.44
2023-03-26T09:08:21.423Z,99077.06
2023-03-26T09:11:09.990Z,99071.63
2023-03-26T09:14:05.751Z,99072.03
2023-03-26T09:17:10.298Z,99071.84
2023-03-26T09:20:06.172Z,99063.47
2023-03-26T09:23:15.197Z,99064.50
2023-03-26T09:26:02.872Z,99069.97
2023-03-26T09:29:15.721Z,99059.56
2023-03-26T09:32:12.923Z,99065.84
2023-03-26T09:35:00.573Z,99061.06
2023-03-26T09:37:56.157Z,99051.25
2023-03-26T09:40:36.859Z,99041.78
2023-03-26T09:43:37.786Z,99039.44
2023-03-26T09:46:23.939Z,99035.19
2023-03-26T09:49:25.153Z,99033.72
2023-03-26T09:52:20.676Z,99029.06
2023-03-26T09:55:08.457Z,99026.38
2023-03-26T09:58:03.342Z,99016.06
2023-03-26T10:00:42.718Z,99014.38
2023-03-26T10:03:27.363Z,99014.53
2023-03-26T10:06:11.727Z,99011.56
2023-03-26T10:08:55.475Z,99012.22
2023-03-26T10:11:33.251Z,99002.69
2023-03-26T10:14:13.513Z,99004.25
2023-03-26T10:16:56.936Z,98996.03
2023-03-26T10:19:53.667Z,98992.94
2023-03-26T10:22:37.855Z,98995.16
2023-03-26T10:25:30.993Z,98994.72
2023-03-26T10:28:15.758Z,98988.81
2023-03-26T10:31:03.597Z,98979.69
2023-03-26T10:33:43.108Z,98969.91
2023-03-26T10:36:29.782Z,98968.38
2023-03-26T10:39:37.415Z,98967.50
2023-03-26T10:42:22.540Z,98959.81
2023-03-26T10:45:07.969Z,98955.25
2023-03-26T10:47:52.484Z,98955.97
2023-03-26T10:51:02.190Z,98949.72
2023-03-26T10:53:39.427Z,98947.44
2023-03-26T10:56:19.761Z,98944.78
2023-03-26T10:58:49.886Z,98939.63
2023-03-26T11:01:33.621Z,98927.91
2023-03-26T11:04:16.353Z,98942.25
2023-03-26T11:06:55.543Z,98930.66
2023-03-26T11:09:37.798Z,98932.91
2023-03-26T11:12:26.263Z,98935.09
2023-03-26T11:15:11.839Z,98920.63
2023-03-26T11:17:51.553Z,98907.00
2023-03-26T11:20:27.753Z,98899.41
2023-03-26T11:23:11.173Z,98893.91
2023-03-26T11:25:57.906Z,98872.91
2023-03-26T11:28:41.242Z,98877.09
2023-03-26T11:31:42.698Z,98868.63
2023-03-26T11:34:17.545Z,98872.16
2023-03-26T11:36:52.787Z,98859.91
2023-03-26T11:39:26.624Z,98855.50
2023-03-26T11:42:07.349Z,98851.47
2023-03-26T11:44:49.262Z,98840.41
2023-03-26T11:47:24.751Z,98845.03
2023-03-26T11:49:56.474Z,98841.78
2023-03-26T11:52:26.964Z,98834.81
2023-03-26T11:54:58.574Z,98819.88
2023-03-26T11:57:33.473Z,98816.28
2023-03-26T12:00:16.834Z,98810.28
2023-03-26T12:02:47.801Z,98812.50
2023-03-26T12:05:22.254Z,98795.03
2023-03-26T12:07:55.946Z,98787.53
2023-03-26T12:10:28.234Z,98785.78
2023-03-26T12:13:01.525Z,98767.00
2023-03-26T12:15:32.234Z,98766.69
2023-03-26T12:18:24.337Z,98762.69
2023-03-26T12:21:04.854Z,98760.22
2023-03-26T12:23:43.721Z,98763.97
2023-03-26T12:26:31.815Z,98757.25
2023-03-26T12:29:08.503Z,98747.84
2023-03-26T12:31:57.643Z,98740.41
2023-03-26T12:34:34.911Z,98732.56
2023-03-26T12:37:05.201Z,98738.75
2023-03-26T12:40:07.391Z,98731.41
2023-03-26T12:44:49.273Z,98722.22
2023-03-26T12:45:24.800Z,98726.34
2023-03-26T12:48:03.810Z,98723.69
2023-03-26T12:50:54.886Z,98722.72
2023-03-26T12:53:43.357Z,98711.88
2023-03-26T12:56:21.938Z,98706.94
2023-03-26T12:59:05.360Z,98703.41
2023-03-26T13:01:47.727Z,98696.09
2023-03-26T13:04:39.119Z,98696.09
2023-03-26T13:07:20.797Z,98681.25
2023-03-26T13:10:06.506Z,98674.91
2023-03-26T13:12:47.117Z,98684.41
2023-03-26T13:15:25.960Z,98680.94
2023-03-26T13:18:13.399Z,98675.44
2023-03-26T13:20:52.150Z,98669.31
2023-03-26T13:23:34.662Z,98648.66
2023-03-26T13:26:15.564Z,98649.44
2023-03-26T13:28:53.286Z,98649.56
2023-03-26T13:31:27.013Z,98653.69
2023-03-26T13:34:11.116Z,98640.97
2023-03-26T13:36:49.261Z,98640.25
2023-03-26T13:39:29.062Z,98631.84
2023-03-26T13:42:14.661Z,98626.91
2023-03-26T13:45:04.846Z,98627.03
2023-03-26T13:47:38.217Z,98623.44
2023-03-26T13:50:20.049Z,98614.53
2023-03-26T13:52:53.134Z,98618.47
2023-03-26T13:55:29.458Z,98614.78
2023-03-26T13:58:05.103Z,98614.03
2023-03-26T14:00:49.736Z,98604.03
2023-03-26T14:03:25.534Z,98593.06
2023-03-26T14:06:01.442Z,98588.22
2023-03-26T14:08:37.393Z,98591.56
2023-03-26T14:11:11.916Z,98590.16
2023-03-26T14:13:48.930Z,98579.47
2023-03-26T14:16:22.710Z,98578.13
2023-03-26T14:19:04.638Z,98570.31
2023-03-26T14:21:56.262Z,98570.75
2023-03-26T14:24:43.615Z,98565.06
2023-03-26T14:27:27.940Z,98563.47
2023-03-26T14:30:18.687Z,98556.84
2023-03-26T14:33:04.277Z,98555.97
2023-03-26T14:35:38.445Z,98545.38
2023-03-26T14:38:45.468Z,98535.91
2023-03-26T14:41:26.293Z,98536.16
2023-03-26T14:44:47.800Z,98531.41
2023-03-26T14:47:20.042Z,98522.19
2023-03-26T14:50:20.319Z,98513.63
2023-03-26T14:52:51.578Z,98507.03
2023-03-26T14:55:42.565Z,98506.06
2023-03-26T14:58:41.336Z,98499.91
2023-03-26T15:01:25.280Z,98491.16
2023-03-26T15:04:35.405Z,98490.78
2023-03-26T15:07:53.901Z,98480.44
2023-03-26T15:11:04.293Z,98483.47
2023-03-26T15:13:56.961Z,98478.06
2023-03-26T15:17:00.421Z,98469.97
2023-03-26T15:20:05.552Z,98469.91
2023-03-26T15:23:05.504Z,98456.13
2023-03-26T15:26:09.942Z,98457.41
2023-03-26T15:29:19.104Z,98450.06
2023-03-26T15:32:18.990Z,98439.88
2023-03-26T15:35:24.411Z,98444.66
2023-03-26T15:38:28.849Z,98432.66
2023-03-26T15:41:12.528Z,98424.59
2023-03-26T15:44:50.802Z,98420.25
2023-03-26T15:47:44.007Z,98407.16
2023-03-26T15:50:33.128Z,98409.63
2023-03-26T15:53:18.656Z,98405.59
2023-03-26T15:56:01.795Z,98402.28
2023-03-26T15:58:36.848Z,98402.69
2023-03-26T16:01:21.418Z,98401.22
2023-03-26T16:03:59.668Z,98392.16
2023-03-26T16:06:41.569Z,98395.56
2023-03-26T16:09:32.554Z,98387.50
2023-03-26T16:12:25.192Z,98383.44
2023-03-26T16:15:21.215Z,98381.44
2023-03-26T16:18:29.960Z,98377.81
2023-03-26T16:21:41.193Z,98366.84
2023-03-26T16:24:25.921Z,98361.63
2023-03-26T16:27:16.448Z,98358.28
2023-03-26T16:30:33.717Z,98353.41
2023-03-26T16:33:15.878Z,98355.28
2023-03-26T16:36:25.970Z,98348.78
2023-03-26T16:39:03.699Z,98354.16
2023-03-26T16:41:33.710Z,98353.97
2023-03-26T16:44:14.791Z,98346.66
2023-03-26T16:46:53.387Z,98337.28
2023-03-26T16:49:33.855Z,98342.69
2023-03-26T16:52:16.725Z,98339.44
2023-03-26T16:54:52.675Z,98330.81
2023-03-26T16:57:28.873Z,98335.28
2023-03-26T17:00:30.139Z,98333.94
2023-03-26T17:03:13.814Z,98330.88
2023-03-26T17:06:02.185Z,98323.38
2023-03-26T17:08:42.649Z,98321.91
2023-03-26T17:11:23.816Z,98318.81
2023-03-26T17:14:04.368Z,98319.38
2023-03-26T17:16:36.213Z,98314.09
2023-03-26T17:19:15.337Z,98308.78
2023-03-26T17:21:56.628Z,98303.06
2023-03-26T17:24:40.721Z,98299.38
2023-03-26T17:27:34.857Z,98301.38
2023-03-26T17:30:26.052Z,98293.88
2023-03-26T17:32:59.986Z,98304.13
2023-03-26T17:35:42.175Z,98304.59
2023-03-26T17:38:50.180Z,98299.94
2023-03-26T17:41:52.623Z,98307.28
2023-03-26T17:44:47.330Z,98305.69
2023-03-26T17:47:32.787Z,98305.09
2023-03-26T17:50:05.384Z,98302.19
2023-03-26T17:52:50.630Z,98299.66
2023-03-26T17:55:22.616Z,98284.47
2023-03-26T17:57:55.372Z,98288.25
2023-03-26T18:00:30.377Z,98293.44
2023-03-26T18:03:04.046Z,98300.09
2023-03-26T18:05:38.721Z,98289.47
2023-03-26T18:08:31.591Z,98280.34
2023-03-26T18:11:29.341Z,98284.06
2023-03-26T18:14:19.748Z,98274.69
2023-03-26T18:16:52.749Z,98281.78
2023-03-26T18:19:23.996Z,98280.81
2023-03-26T18:21:54.588Z,98277.03
2023-03-26T18:24:27.811Z,98275.09
2023-03-26T18:27:00.227Z,98276.41
2023-03-26T18:29:31.261Z,98266.81
2023-03-26T18:32:03.684Z,98267.72
2023-03-26T18:34:34.700Z,98268.00
2023-03-26T18:37:16.805Z,98272.31
2023-03-26T18:39:58.135Z,98262.28
2023-03-26T18:42:29.391Z,98249.81
2023-03-26T18:45:00.295Z,98254.94
2023-03-26T18:47:32.971Z,98252.47
2023-03-26T18:50:02.384Z,98248.47
2023-03-26T18:52:33.350Z,98243.41
2023-03-26T18:55:04.598Z,98233.97
2023-03-26T18:57:33.307Z,98230.47
2023-03-26T19:00:20.026Z,98233.03
2023-03-26T19:02:55.651Z,98231.75
2023-03-26T19:05:25.314Z,98219.56
2023-03-26T19:07:54.314Z,98216.59
2023-03-26T19:10:25.233Z,98203.31
2023-03-26T19:12:57.855Z,98203.47
2023-03-26T19:15:29.258Z,98206.31
2023-03-26T19:18:07.140Z,98193.91
2023-03-26T19:20:42.114Z,98187.94
2023-03-26T19:23:15.845Z,98180.19
2023-03-26T19:25:48.638Z,98172.06
2023-03-26T19:28:21.809Z,98164.50
2023-03-26T19:30:55.637Z,98164.50
2023-03-26T19:33:34.152Z,98158.44
2023-03-26T19:36:05.938Z,98155.97
2023-03-26T19:38:43.160Z,98148.66
2023-03-26T19:41:20.516Z,98133.22
2023-03-26T19:43:50.769Z,98142.06
2023-03-26T19:46:22.989Z,98133.69
2023-03-26T19:48:54.882Z,98133.69
2023-03-26T19:51:26.280Z,98122.53
2023-03-26T19:53:56.625Z,98123.31
2023-03-26T19:56:25.838Z,98126.03
2023-03-26T19:58:55.712Z,98118.88
2023-03-26T20:01:27.286Z,98113.59
2023-03-26T20:04:00.818Z,98107.41
2023-03-26T20:06:42.589Z,98110.06
2023-03-26T20:09:14.224Z,98096.78
2023-03-26T20:11:43.448Z,98087.94
2023-03-26T20:14:16.797Z,98091.81
2023-03-26T20:16:46.354Z,98089.72
2023-03-26T20:19:16.791Z,98084.72
2023-03-26T20:21:46.177Z,98077.56
2023-03-26T20:24:17.607Z,98076.81
2023-03-26T20:26:47.729Z,98076.09
2023-03-26T20:29:16.579Z,98054.91
2023-03-26T20:31:46.004Z,98047.09
2023-03-26T20:34:19.989Z,98048.66
2023-03-26T20:36:54.391Z,98041.56
2023-03-26T20:39:23.656Z,98032.06
2023-03-26T20:41:54.165Z,98032.75
2023-03-26T20:44:23.087Z,98025.16
2023-03-26T20:46:53.061Z,98017.84
2023-03-26T20:49:23.289Z,98011.47
2023-03-26T20:51:52.985Z,98008.75
2023-03-26T20:54:23.741Z,98007.47
2023-03-26T20:56:54.599Z,98002.88
2023-03-26T20:59:26.859Z,97999.41
2023-03-26T21:01:59.377Z,97991.91
2023-03-26T21:04:29.733Z,98000.69
2023-03-26T21:07:07.233Z,97998.91
2023-03-26T21:09:40.527Z,97982.69
2023-03-26T21:12:17.920Z,97978.59
2023-03-26T21:14:47.349Z,97977.50
2023-03-26T21:17:19.089Z,97971.28
2023-03-26T21:19:51.093Z,97950.25
2023-03-26T21:22:34.435Z,97948.69
2023-03-26T21:25:11.876Z,97945.38
2023-03-26T21:27:51.611Z,97938.53
2023-03-26T21:30:21.211Z,97933.91
2023-03-26T21:32:50.720Z,97921.97
2023-03-26T21:35:22.179Z,97920.59
2023-03-26T21:37:52.700Z,97909.56
2023-03-26T21:40:21.689Z,97913.91
2023-03-26T21:42:52.649Z,97916.66
2023-03-26T21:45:22.973Z,97898.88
2023-03-26T21:47:52.516Z,97895.84
2023-03-26T21:50:24.212Z,97891.34
2023-03-26T21:52:53.730Z,97891.72
2023-03-26T21:55:24.404Z,97878.91
2023-03-26T21:58:37.978Z,97870.66
2023-03-26T22:01:29.432Z,97875.34
2023-03-26T22:04:09.711Z,97875.44
2023-03-26T22:06:45.030Z,97877.59
2023-03-26T22:09:18.480Z,97869.66
2023-03-26T22:11:49.393Z,97869.28
2023-03-26T22:14:18.509Z,97870.72
2023-03-26T22:16:47.175Z,97865.34
2023-03-26T22:19:17.084Z,97856.25
2023-03-26T22:21:47.196Z,97860.44
2023-03-26T22:24:16.154Z,97854.41
2023-03-26T22:26:45.238Z,97856.53
2023-03-26T22:29:14.653Z,97863.41
2023-03-26T22:31:43.215Z,97857.66
2023-03-26T22:34:13.171Z,97856.81
2023-03-26T22:36:41.920Z,97849.53
2023-03-26T22:39:12.217Z,97854.66
2023-03-26T22:41:40.862Z,97851.13
2023-03-26T22:44:19.630Z,97836.94
2023-03-26T22:46:51.398Z,97827.41
2023-03-26T22:49:21.445Z,97831.38
2023-03-26T22:51:50.397Z,97825.44
2023-03-26T22:54:20.983Z,97824.56
2023-03-26T22:56:49.766Z,97823.56
2023-03-26T22:59:18.805Z,97815.16
2023-03-26T23:01:47.562Z,97816.94
2023-03-26T23:04:31.666Z,97812.69
2023-03-26T23:07:01.217Z,97805.00
2023-03-26T23:09:31.604Z,97804.13
2023-03-26T23:12:00.548Z,97790.81
2023-03-26T23:14:32.465Z,97800.66
2023-03-26T23:17:01.531Z,97796.47
2023-03-26T23:19:34.075Z,97797.88
2023-03-26T23:22:02.786Z,97784.69
2023-03-26T23:24:33.014Z,97787.16
2023-03-26T23:27:01.820Z,97787.88
2023-03-26T23:29:31.883Z,97779.63
2023-03-26T23:32:00.534Z,97776.31
2023-03-26T23:34:29.454Z,97765.88
2023-03-26T23:36:58.122Z,97767.34
2023-03-26T23:39:28.628Z,97754.72
2023-03-26T23:41:58.670Z,97756.13
2023-03-26T23:44:29.457Z,97753.41
2023-03-26T23:47:00.648Z,97748.34
2023-03-26T23:49:29.740Z,97751.06
2023-03-26T23:51:58.379Z,97740.97
2023-03-26T23:54:27.563Z,97734.72
2023-03-26T23:56:57.848Z,97737.75
2023-03-26T23:59:28.280Z,97724.56
